sensor_id;sensor_type;location;lat;lon;timestamp;P1;durP1;ratioP1;P2;durP2;ratioP2
49566;SDS011;35472;50.514;30.448;2022-07-05T00:00:58;9.45;;;5.93;;
49566;SDS011;35472;50.514;30.448;2022-07-05T00:03:23;6.75;;;5.80;;
49566;SDS011;35472;50.514;30.448;2022-07-05T00:05:49;9.93;;;5.32;;
49566;SDS011;35472;50.514;30.448;2022-07-05T00:08:15;7.57;;;5.20;;
49566;SDS011;35472;50.514;30.448;2022-07-05T00:10:41;8.00;;;6.10;;
49566;SDS011;35472;50.514;30.448;2022-07-05T00:13:06;10.57;;;6.10;;
49566;SDS011;35472;50.514;30.448;2022-07-05T00:15:32;5.97;;;5.35;;
49566;SDS011;35472;50.514;30.448;2022-07-05T00:17:58;5.97;;;5.13;;
49566;SDS011;35472;50.514;30.448;2022-07-05T00:20:23;9.77;;;6.30;;
49566;SDS011;35472;50.514;30.448;2022-07-05T00:22:50;7.40;;;5.28;;
49566;SDS011;35472;50.514;30.448;2022-07-05T00:25:15;7.82;;;4.90;;
49566;SDS011;35472;50.514;30.448;2022-07-05T00:27:41;8.10;;;5.05;;
49566;SDS011;35472;50.514;30.448;2022-07-05T00:30:07;7.43;;;5.20;;
49566;SDS011;35472;50.514;30.448;2022-07-05T00:32:35;9.32;;;5.07;;
49566;SDS011;35472;50.514;30.448;2022-07-05T00:35:02;6.43;;;5.43;;
49566;SDS011;35472;50.514;30.448;2022-07-05T00:37:28;6.70;;;6.00;;
49566;SDS011;35472;50.514;30.448;2022-07-05T00:39:58;6.00;;;5.10;;
49566;SDS011;35472;50.514;30.448;2022-07-05T00:42:23;7.00;;;4.80;;
49566;SDS011;35472;50.514;30.448;2022-07-05T00:44:49;7.60;;;5.40;;
49566;SDS011;35472;50.514;30.448;2022-07-05T00:47:15;5.95;;;4.65;;
49566;SDS011;35472;50.514;30.448;2022-07-05T00:49:41;6.05;;;5.05;;
49566;SDS011;35472;50.514;30.448;2022-07-05T00:52:07;6.05;;;4.95;;
49566;SDS011;35472;50.514;30.448;2022-07-05T00:54:34;6.70;;;5.13;;
49566;SDS011;35472;50.514;30.448;2022-07-05T00:57:01;7.38;;;4.57;;
49566;SDS011;35472;50.514;30.448;2022-07-05T00:59:28;5.70;;;5.15;;
49566;SDS011;35472;50.514;30.448;2022-07-05T01:01:54;5.53;;;4.55;;
49566;SDS011;35472;50.514;30.448;2022-07-05T01:04:20;6.00;;;4.38;;
49566;SDS011;35472;50.514;30.448;2022-07-05T01:06:46;5.75;;;4.90;;
49566;SDS011;35472;50.514;30.448;2022-07-05T01:09:13;6.47;;;4.65;;
49566;SDS011;35472;50.514;30.448;2022-07-05T01:11:43;7.85;;;5.07;;
49566;SDS011;35472;50.514;30.448;2022-07-05T01:14:13;5.30;;;4.80;;
49566;SDS011;35472;50.514;30.448;2022-07-05T01:16:41;6.90;;;4.70;;
49566;SDS011;35472;50.514;30.448;2022-07-05T01:19:07;4.90;;;4.18;;
49566;SDS011;35472;50.514;30.448;2022-07-05T01:21:39;6.25;;;4.53;;
49566;SDS011;35472;50.514;30.448;2022-07-05T01:24:06;6.00;;;4.75;;
49566;SDS011;35472;50.514;30.448;2022-07-05T01:26:32;7.80;;;4.70;;
49566;SDS011;35472;50.514;30.448;2022-07-05T01:28:57;8.73;;;4.82;;
49566;SDS011;35472;50.514;30.448;2022-07-05T01:31:23;5.07;;;4.10;;
49566;SDS011;35472;50.514;30.448;2022-07-05T01:33:48;5.28;;;4.72;;
49566;SDS011;35472;50.514;30.448;2022-07-05T01:36:14;6.15;;;4.82;;
49566;SDS011;35472;50.514;30.448;2022-07-05T01:38:39;5.43;;;4.80;;
49566;SDS011;35472;50.514;30.448;2022-07-05T01:41:05;9.05;;;4.85;;
49566;SDS011;35472;50.514;30.448;2022-07-05T01:43:32;5.28;;;4.70;;
49566;SDS011;35472;50.514;30.448;2022-07-05T01:45:58;7.20;;;4.20;;
49566;SDS011;35472;50.514;30.448;2022-07-05T01:48:28;4.97;;;3.88;;
49566;SDS011;35472;50.514;30.448;2022-07-05T01:50:57;5.53;;;3.95;;
49566;SDS011;35472;50.514;30.448;2022-07-05T01:53:29;5.32;;;4.65;;
49566;SDS011;35472;50.514;30.448;2022-07-05T01:55:57;6.00;;;4.88;;
49566;SDS011;35472;50.514;30.448;2022-07-05T01:58:25;5.63;;;4.50;;
49566;SDS011;35472;50.514;30.448;2022-07-05T02:00:52;7.63;;;4.90;;
49566;SDS011;35472;50.514;30.448;2022-07-05T02:03:18;6.07;;;4.97;;
49566;SDS011;35472;50.514;30.448;2022-07-05T02:05:44;5.65;;;4.93;;
49566;SDS011;35472;50.514;30.448;2022-07-05T02:08:15;6.68;;;5.53;;
49566;SDS011;35472;50.514;30.448;2022-07-05T02:10:41;6.88;;;5.05;;
49566;SDS011;35472;50.514;30.448;2022-07-05T02:13:08;9.07;;;4.68;;
49566;SDS011;35472;50.514;30.448;2022-07-05T02:15:35;5.95;;;4.93;;
49566;SDS011;35472;50.514;30.448;2022-07-05T02:18:04;8.18;;;5.32;;
49566;SDS011;35472;50.514;30.448;2022-07-05T02:20:34;5.75;;;5.15;;
49566;SDS011;35472;50.514;30.448;2022-07-05T02:23:06;9.18;;;5.25;;
49566;SDS011;35472;50.514;30.448;2022-07-05T02:25:32;7.93;;;5.85;;
49566;SDS011;35472;50.514;30.448;2022-07-05T02:28:05;6.90;;;5.07;;
49566;SDS011;35472;50.514;30.448;2022-07-05T02:30:32;5.65;;;4.65;;
49566;SDS011;35472;50.514;30.448;2022-07-05T02:32:58;5.93;;;4.93;;
49566;SDS011;35472;50.514;30.448;2022-07-05T02:35:25;6.63;;;4.95;;
49566;SDS011;35472;50.514;30.448;2022-07-05T02:37:50;5.07;;;4.40;;
49566;SDS011;35472;50.514;30.448;2022-07-05T02:40:16;8.23;;;5.30;;
49566;SDS011;35472;50.514;30.448;2022-07-05T02:42:46;7.78;;;5.75;;
49566;SDS011;35472;50.514;30.448;2022-07-05T02:45:15;5.80;;;4.60;;
49566;SDS011;35472;50.514;30.448;2022-07-05T02:47:42;5.68;;;5.07;;
49566;SDS011;35472;50.514;30.448;2022-07-05T02:50:09;7.90;;;5.00;;
49566;SDS011;35472;50.514;30.448;2022-07-05T02:52:40;6.63;;;5.18;;
49566;SDS011;35472;50.514;30.448;2022-07-05T02:55:06;9.75;;;8.35;;
49566;SDS011;35472;50.514;30.448;2022-07-05T02:57:36;13.40;;;11.05;;
49566;SDS011;35472;50.514;30.448;2022-07-05T03:00:03;19.98;;;16.50;;
49566;SDS011;35472;50.514;30.448;2022-07-05T03:02:37;8.77;;;7.32;;
49566;SDS011;35472;50.514;30.448;2022-07-05T03:05:03;5.95;;;5.35;;
49566;SDS011;35472;50.514;30.448;2022-07-05T03:07:29;6.47;;;5.25;;
49566;SDS011;35472;50.514;30.448;2022-07-05T03:09:54;7.88;;;5.25;;
49566;SDS011;35472;50.514;30.448;2022-07-05T03:12:22;7.53;;;5.05;;
49566;SDS011;35472;50.514;30.448;2022-07-05T03:14:47;6.18;;;5.25;;
49566;SDS011;35472;50.514;30.448;2022-07-05T03:17:14;6.47;;;5.22;;
49566;SDS011;35472;50.514;30.448;2022-07-05T03:19:40;5.57;;;4.97;;
49566;SDS011;35472;50.514;30.448;2022-07-05T03:22:07;8.95;;;5.03;;
49566;SDS011;35472;50.514;30.448;2022-07-05T03:24:35;7.32;;;5.00;;
49566;SDS011;35472;50.514;30.448;2022-07-05T03:27:01;6.88;;;5.22;;
49566;SDS011;35472;50.514;30.448;2022-07-05T03:29:27;6.78;;;4.85;;
49566;SDS011;35472;50.514;30.448;2022-07-05T03:31:54;5.25;;;4.10;;
49566;SDS011;35472;50.514;30.448;2022-07-05T03:34:19;25.08;;;14.23;;
49566;SDS011;35472;50.514;30.448;2022-07-05T03:36:46;25.40;;;18.90;;
49566;SDS011;35472;50.514;30.448;2022-07-05T03:39:16;14.95;;;12.55;;
49566;SDS011;35472;50.514;30.448;2022-07-05T03:41:41;7.88;;;7.00;;
49566;SDS011;35472;50.514;30.448;2022-07-05T03:44:14;10.63;;;6.28;;
49566;SDS011;35472;50.514;30.448;2022-07-05T03:46:39;8.15;;;5.75;;
49566;SDS011;35472;50.514;30.448;2022-07-05T03:49:05;6.03;;;5.40;;
49566;SDS011;35472;50.514;30.448;2022-07-05T03:51:31;6.97;;;4.95;;
49566;SDS011;35472;50.514;30.448;2022-07-05T03:53:58;6.05;;;4.78;;
49566;SDS011;35472;50.514;30.448;2022-07-05T03:56:25;6.63;;;5.30;;
49566;SDS011;35472;50.514;30.448;2022-07-05T03:58:54;6.03;;;5.43;;
49566;SDS011;35472;50.514;30.448;2022-07-05T04:01:19;6.75;;;6.13;;
49566;SDS011;35472;50.514;30.448;2022-07-05T04:03:45;6.20;;;5.30;;
49566;SDS011;35472;50.514;30.448;2022-07-05T04:06:13;6.55;;;4.70;;
49566;SDS011;35472;50.514;30.448;2022-07-05T04:08:39;5.75;;;5.07;;
49566;SDS011;35472;50.514;30.448;2022-07-05T04:11:05;6.15;;;5.13;;
49566;SDS011;35472;50.514;30.448;2022-07-05T04:13:32;6.80;;;6.20;;
49566;SDS011;35472;50.514;30.448;2022-07-05T04:15:57;6.90;;;5.88;;
49566;SDS011;35472;50.514;30.448;2022-07-05T04:18:23;8.52;;;5.53;;
49566;SDS011;35472;50.514;30.448;2022-07-05T04:20:49;9.93;;;6.72;;
49566;SDS011;35472;50.514;30.448;2022-07-05T04:23:15;12.68;;;6.65;;
49566;SDS011;35472;50.514;30.448;2022-07-05T04:25:40;11.02;;;5.95;;
49566;SDS011;35472;50.514;30.448;2022-07-05T04:28:17;7.47;;;5.35;;
49566;SDS011;35472;50.514;30.448;2022-07-05T04:30:45;6.55;;;5.75;;
49566;SDS011;35472;50.514;30.448;2022-07-05T04:33:14;6.43;;;5.65;;
49566;SDS011;35472;50.514;30.448;2022-07-05T04:35:42;6.93;;;5.32;;
49566;SDS011;35472;50.514;30.448;2022-07-05T04:38:08;6.93;;;5.72;;
49566;SDS011;35472;50.514;30.448;2022-07-05T04:40:36;10.60;;;5.68;;
49566;SDS011;35472;50.514;30.448;2022-07-05T04:43:03;8.07;;;5.13;;
49566;SDS011;35472;50.514;30.448;2022-07-05T04:45:28;5.35;;;4.65;;
49566;SDS011;35472;50.514;30.448;2022-07-05T04:47:54;9.23;;;5.25;;
49566;SDS011;35472;50.514;30.448;2022-07-05T04:50:22;7.75;;;6.10;;
49566;SDS011;35472;50.514;30.448;2022-07-05T04:52:49;8.70;;;5.40;;
49566;SDS011;35472;50.514;30.448;2022-07-05T04:55:14;6.15;;;5.03;;
49566;SDS011;35472;50.514;30.448;2022-07-05T04:57:40;6.30;;;5.57;;
49566;SDS011;35472;50.514;30.448;2022-07-05T05:00:07;6.07;;;5.32;;
49566;SDS011;35472;50.514;30.448;2022-07-05T05:02:37;5.18;;;4.68;;
49566;SDS011;35472;50.514;30.448;2022-07-05T05:05:02;6.95;;;6.25;;
49566;SDS011;35472;50.514;30.448;2022-07-05T05:07:28;6.03;;;5.38;;
49566;SDS011;35472;50.514;30.448;2022-07-05T05:09:54;6.80;;;5.25;;
49566;SDS011;35472;50.514;30.448;2022-07-05T05:12:19;7.97;;;6.40;;
49566;SDS011;35472;50.514;30.448;2022-07-05T05:14:45;6.97;;;4.90;;
49566;SDS011;35472;50.514;30.448;2022-07-05T05:17:10;6.93;;;5.15;;
49566;SDS011;35472;50.514;30.448;2022-07-05T05:19:36;6.32;;;5.53;;
49566;SDS011;35472;50.514;30.448;2022-07-05T05:22:01;6.28;;;5.20;;
49566;SDS011;35472;50.514;30.448;2022-07-05T05:24:27;6.60;;;5.32;;
49566;SDS011;35472;50.514;30.448;2022-07-05T05:26:52;6.15;;;4.97;;
49566;SDS011;35472;50.514;30.448;2022-07-05T05:29:18;5.18;;;4.68;;
49566;SDS011;35472;50.514;30.448;2022-07-05T05:31:44;6.15;;;5.55;;
49566;SDS011;35472;50.514;30.448;2022-07-05T05:34:09;6.72;;;4.63;;
49566;SDS011;35472;50.514;30.448;2022-07-05T05:36:35;5.70;;;5.07;;
49566;SDS011;35472;50.514;30.448;2022-07-05T05:39:00;6.65;;;4.45;;
49566;SDS011;35472;50.514;30.448;2022-07-05T05:41:25;7.53;;;6.85;;
49566;SDS011;35472;50.514;30.448;2022-07-05T05:43:51;6.93;;;4.55;;
49566;SDS011;35472;50.514;30.448;2022-07-05T05:46:16;5.57;;;4.70;;
49566;SDS011;35472;50.514;30.448;2022-07-05T05:48:42;5.40;;;4.43;;
49566;SDS011;35472;50.514;30.448;2022-07-05T05:51:07;4.75;;;4.35;;
49566;SDS011;35472;50.514;30.448;2022-07-05T05:53:33;8.10;;;4.47;;
49566;SDS011;35472;50.514;30.448;2022-07-05T05:55:58;5.07;;;4.65;;
49566;SDS011;35472;50.514;30.448;2022-07-05T05:58:24;4.70;;;4.40;;
49566;SDS011;35472;50.514;30.448;2022-07-05T06:00:50;4.97;;;3.78;;
49566;SDS011;35472;50.514;30.448;2022-07-05T06:03:23;6.82;;;4.93;;
49566;SDS011;35472;50.514;30.448;2022-07-05T06:05:51;5.55;;;4.63;;
49566;SDS011;35472;50.514;30.448;2022-07-05T06:08:16;5.93;;;4.68;;
49566;SDS011;35472;50.514;30.448;2022-07-05T06:10:42;4.25;;;3.85;;
49566;SDS011;35472;50.514;30.448;2022-07-05T06:13:08;6.38;;;4.60;;
49566;SDS011;35472;50.514;30.448;2022-07-05T06:15:35;5.32;;;4.82;;
49566;SDS011;35472;50.514;30.448;2022-07-05T06:18:02;8.25;;;4.85;;
49566;SDS011;35472;50.514;30.448;2022-07-05T06:20:29;6.38;;;4.28;;
49566;SDS011;35472;50.514;30.448;2022-07-05T06:22:57;4.50;;;4.18;;
49566;SDS011;35472;50.514;30.448;2022-07-05T06:25:23;5.03;;;4.07;;
49566;SDS011;35472;50.514;30.448;2022-07-05T06:27:49;4.53;;;3.80;;
49566;SDS011;35472;50.514;30.448;2022-07-05T06:30:22;9.88;;;4.47;;
49566;SDS011;35472;50.514;30.448;2022-07-05T06:32:49;4.35;;;4.00;;
49566;SDS011;35472;50.514;30.448;2022-07-05T06:35:15;4.53;;;4.22;;
49566;SDS011;35472;50.514;30.448;2022-07-05T06:40:08;5.32;;;4.07;;
49566;SDS011;35472;50.514;30.448;2022-07-05T06:42:34;5.25;;;4.30;;
49566;SDS011;35472;50.514;30.448;2022-07-05T06:45:01;6.25;;;4.18;;
49566;SDS011;35472;50.514;30.448;2022-07-05T06:47:27;4.15;;;3.70;;
49566;SDS011;35472;50.514;30.448;2022-07-05T06:49:52;7.65;;;4.40;;
49566;SDS011;35472;50.514;30.448;2022-07-05T06:52:18;5.15;;;3.88;;
49566;SDS011;35472;50.514;30.448;2022-07-05T06:54:43;4.80;;;4.30;;
49566;SDS011;35472;50.514;30.448;2022-07-05T06:57:08;3.50;;;3.20;;
49566;SDS011;35472;50.514;30.448;2022-07-05T06:59:35;7.85;;;4.57;;
49566;SDS011;35472;50.514;30.448;2022-07-05T07:02:01;3.95;;;3.55;;
49566;SDS011;35472;50.514;30.448;2022-07-05T07:04:27;5.32;;;3.30;;
49566;SDS011;35472;50.514;30.448;2022-07-05T07:06:52;5.82;;;4.30;;
49566;SDS011;35472;50.514;30.448;2022-07-05T07:09:18;5.70;;;3.80;;
49566;SDS011;35472;50.514;30.448;2022-07-05T07:11:43;5.70;;;3.58;;
49566;SDS011;35472;50.514;30.448;2022-07-05T07:14:09;4.50;;;2.88;;
49566;SDS011;35472;50.514;30.448;2022-07-05T07:16:35;4.05;;;3.67;;
49566;SDS011;35472;50.514;30.448;2022-07-05T07:19:01;8.32;;;3.85;;
49566;SDS011;35472;50.514;30.448;2022-07-05T07:21:26;3.03;;;2.72;;
49566;SDS011;35472;50.514;30.448;2022-07-05T07:23:51;5.35;;;3.33;;
49566;SDS011;35472;50.514;30.448;2022-07-05T07:26:17;3.40;;;3.05;;
49566;SDS011;35472;50.514;30.448;2022-07-05T07:28:42;2.72;;;2.53;;
49566;SDS011;35472;50.514;30.448;2022-07-05T07:31:07;5.18;;;3.53;;
49566;SDS011;35472;50.514;30.448;2022-07-05T07:33:33;3.40;;;3.10;;
49566;SDS011;35472;50.514;30.448;2022-07-05T07:35:59;3.72;;;3.33;;
49566;SDS011;35472;50.514;30.448;2022-07-05T07:38:24;3.42;;;3.13;;
49566;SDS011;35472;50.514;30.448;2022-07-05T07:40:51;3.58;;;3.28;;
49566;SDS011;35472;50.514;30.448;2022-07-05T07:43:16;5.00;;;3.72;;
49566;SDS011;35472;50.514;30.448;2022-07-05T07:45:42;4.32;;;3.55;;
49566;SDS011;35472;50.514;30.448;2022-07-05T07:48:08;6.57;;;3.25;;
49566;SDS011;35472;50.514;30.448;2022-07-05T07:50:33;4.45;;;3.40;;
49566;SDS011;35472;50.514;30.448;2022-07-05T07:52:59;5.60;;;3.20;;
49566;SDS011;35472;50.514;30.448;2022-07-05T07:55:24;6.90;;;3.10;;
49566;SDS011;35472;50.514;30.448;2022-07-05T07:57:50;6.03;;;5.00;;
49566;SDS011;35472;50.514;30.448;2022-07-05T08:00:15;5.88;;;3.42;;
49566;SDS011;35472;50.514;30.448;2022-07-05T08:02:41;3.55;;;2.60;;
49566;SDS011;35472;50.514;30.448;2022-07-05T08:05:06;3.63;;;3.22;;
49566;SDS011;35472;50.514;30.448;2022-07-05T08:07:34;3.17;;;2.97;;
49566;SDS011;35472;50.514;30.448;2022-07-05T08:10:00;4.32;;;3.92;;
49566;SDS011;35472;50.514;30.448;2022-07-05T08:12:26;5.30;;;3.53;;
49566;SDS011;35472;50.514;30.448;2022-07-05T08:14:51;3.88;;;3.33;;
49566;SDS011;35472;50.514;30.448;2022-07-05T08:17:17;5.07;;;3.42;;
49566;SDS011;35472;50.514;30.448;2022-07-05T08:19:45;4.13;;;3.83;;
49566;SDS011;35472;50.514;30.448;2022-07-05T08:22:30;4.15;;;3.35;;
49566;SDS011;35472;50.514;30.448;2022-07-05T08:24:56;6.18;;;3.88;;
49566;SDS011;35472;50.514;30.448;2022-07-05T08:27:21;4.25;;;3.85;;
49566;SDS011;35472;50.514;30.448;2022-07-05T08:29:47;5.88;;;3.60;;
49566;SDS011;35472;50.514;30.448;2022-07-05T08:32:12;4.38;;;3.90;;
49566;SDS011;35472;50.514;30.448;2022-07-05T08:34:38;3.67;;;3.38;;
49566;SDS011;35472;50.514;30.448;2022-07-05T08:37:04;6.20;;;3.40;;
49566;SDS011;35472;50.514;30.448;2022-07-05T08:39:30;4.13;;;3.20;;
49566;SDS011;35472;50.514;30.448;2022-07-05T08:41:55;3.58;;;2.80;;
49566;SDS011;35472;50.514;30.448;2022-07-05T08:44:22;9.82;;;3.70;;
49566;SDS011;35472;50.514;30.448;2022-07-05T08:46:48;3.65;;;3.35;;
49566;SDS011;35472;50.514;30.448;2022-07-05T08:49:20;3.67;;;3.38;;
49566;SDS011;35472;50.514;30.448;2022-07-05T08:54:16;5.88;;;3.85;;
49566;SDS011;35472;50.514;30.448;2022-07-05T08:56:42;6.63;;;3.72;;
49566;SDS011;35472;50.514;30.448;2022-07-05T08:59:08;7.20;;;3.15;;
49566;SDS011;35472;50.514;30.448;2022-07-05T09:01:34;4.50;;;3.75;;
49566;SDS011;35472;50.514;30.448;2022-07-05T09:04:05;4.93;;;4.32;;
49566;SDS011;35472;50.514;30.448;2022-07-05T09:06:34;6.40;;;3.67;;
49566;SDS011;35472;50.514;30.448;2022-07-05T09:09:02;4.15;;;3.75;;
49566;SDS011;35472;50.514;30.448;2022-07-05T09:11:39;8.57;;;4.18;;
49566;SDS011;35472;50.514;30.448;2022-07-05T09:14:07;4.65;;;3.72;;
49566;SDS011;35472;50.514;30.448;2022-07-05T09:16:43;4.07;;;3.67;;
49566;SDS011;35472;50.514;30.448;2022-07-05T09:19:09;3.92;;;3.47;;
49566;SDS011;35472;50.514;30.448;2022-07-05T09:21:34;6.05;;;4.50;;
49566;SDS011;35472;50.514;30.448;2022-07-05T09:24:02;4.93;;;4.53;;
49566;SDS011;35472;50.514;30.448;2022-07-05T09:26:33;5.80;;;4.75;;
49566;SDS011;35472;50.514;30.448;2022-07-05T09:29:01;4.70;;;4.20;;
49566;SDS011;35472;50.514;30.448;2022-07-05T09:31:35;4.43;;;4.03;;
49566;SDS011;35472;50.514;30.448;2022-07-05T09:34:03;7.35;;;4.22;;
49566;SDS011;35472;50.514;30.448;2022-07-05T09:36:46;4.25;;;3.85;;
49566;SDS011;35472;50.514;30.448;2022-07-05T09:44:56;6.22;;;3.65;;
49566;SDS011;35472;50.514;30.448;2022-07-05T09:47:28;4.30;;;3.60;;
49566;SDS011;35472;50.514;30.448;2022-07-05T09:49:55;4.28;;;3.88;;
49566;SDS011;35472;50.514;30.448;2022-07-05T09:52:25;5.53;;;4.47;;
49566;SDS011;35472;50.514;30.448;2022-07-05T09:55:03;5.85;;;3.55;;
49566;SDS011;35472;50.514;30.448;2022-07-05T09:57:31;3.63;;;3.30;;
49566;SDS011;35472;50.514;30.448;2022-07-05T09:59:58;4.38;;;3.97;;
49566;SDS011;35472;50.514;30.448;2022-07-05T10:02:41;4.75;;;3.63;;
49566;SDS011;35472;50.514;30.448;2022-07-05T10:05:16;4.18;;;3.78;;
49566;SDS011;35472;50.514;30.448;2022-07-05T10:07:49;6.68;;;4.22;;
49566;SDS011;35472;50.514;30.448;2022-07-05T10:10:20;5.25;;;4.05;;
49566;SDS011;35472;50.514;30.448;2022-07-05T10:12:48;4.80;;;4.18;;
49566;SDS011;35472;50.514;30.448;2022-07-05T10:15:19;4.90;;;4.45;;
49566;SDS011;35472;50.514;30.448;2022-07-05T10:23:02;6.80;;;3.85;;
49566;SDS011;35472;50.514;30.448;2022-07-05T10:25:29;5.30;;;4.60;;
49566;SDS011;35472;50.514;30.448;2022-07-05T10:27:55;4.43;;;4.03;;
49566;SDS011;35472;50.514;30.448;2022-07-05T10:30:23;4.75;;;4.35;;
49566;SDS011;35472;50.514;30.448;2022-07-05T10:32:49;5.03;;;3.88;;
49566;SDS011;35472;50.514;30.448;2022-07-05T10:35:15;6.60;;;3.83;;
49566;SDS011;35472;50.514;30.448;2022-07-05T10:37:42;5.93;;;3.70;;
49566;SDS011;35472;50.514;30.448;2022-07-05T10:40:08;5.70;;;4.28;;
49566;SDS011;35472;50.514;30.448;2022-07-05T10:42:37;4.30;;;3.83;;
49566;SDS011;35472;50.514;30.448;2022-07-05T10:45:22;4.78;;;4.25;;
49566;SDS011;35472;50.514;30.448;2022-07-05T10:50:43;4.75;;;3.58;;
49566;SDS011;35472;50.514;30.448;2022-07-05T10:53:10;7.43;;;4.15;;
49566;SDS011;35472;50.514;30.448;2022-07-05T11:00:42;4.18;;;3.75;;
49566;SDS011;35472;50.514;30.448;2022-07-05T11:06:02;4.20;;;3.90;;
49566;SDS011;35472;50.514;30.448;2022-07-05T11:08:28;5.35;;;3.58;;
49566;SDS011;35472;50.514;30.448;2022-07-05T11:11:11;4.00;;;3.70;;
49566;SDS011;35472;50.514;30.448;2022-07-05T11:13:39;6.55;;;3.83;;
49566;SDS011;35472;50.514;30.448;2022-07-05T11:16:19;4.75;;;3.75;;
49566;SDS011;35472;50.514;30.448;2022-07-05T11:19:08;4.22;;;3.58;;
49566;SDS011;35472;50.514;30.448;2022-07-05T11:21:39;4.53;;;4.10;;
49566;SDS011;35472;50.514;30.448;2022-07-05T11:24:25;9.23;;;3.65;;
49566;SDS011;35472;50.514;30.448;2022-07-05T11:26:52;4.93;;;3.75;;
49566;SDS011;35472;50.514;30.448;2022-07-05T11:32:08;3.78;;;3.47;;
49566;SDS011;35472;50.514;30.448;2022-07-05T11:34:36;4.20;;;3.55;;
49566;SDS011;35472;50.514;30.448;2022-07-05T11:37:21;4.82;;;4.43;;
49566;SDS011;35472;50.514;30.448;2022-07-05T11:42:35;4.65;;;4.22;;
49566;SDS011;35472;50.514;30.448;2022-07-05T11:45:05;3.97;;;3.60;;
49566;SDS011;35472;50.514;30.448;2022-07-05T11:47:31;3.70;;;3.45;;
49566;SDS011;35472;50.514;30.448;2022-07-05T11:49:59;4.40;;;3.83;;
49566;SDS011;35472;50.514;30.448;2022-07-05T11:52:24;5.07;;;4.10;;
49566;SDS011;35472;50.514;30.448;2022-07-05T11:54:53;3.10;;;2.88;;
49566;SDS011;35472;50.514;30.448;2022-07-05T11:57:20;3.88;;;3.58;;
49566;SDS011;35472;50.514;30.448;2022-07-05T11:59:46;4.50;;;4.10;;
49566;SDS011;35472;50.514;30.448;2022-07-05T12:02:11;3.90;;;3.40;;
49566;SDS011;35472;50.514;30.448;2022-07-05T12:04:37;6.20;;;3.65;;
49566;SDS011;35472;50.514;30.448;2022-07-05T12:07:03;4.70;;;4.30;;
49566;SDS011;35472;50.514;30.448;2022-07-05T12:09:29;9.30;;;3.85;;
49566;SDS011;35472;50.514;30.448;2022-07-05T12:12:20;3.88;;;3.58;;
49566;SDS011;35472;50.514;30.448;2022-07-05T12:15:05;5.03;;;3.58;;
49566;SDS011;35472;50.514;30.448;2022-07-05T12:17:33;4.50;;;4.10;;
49566;SDS011;35472;50.514;30.448;2022-07-05T12:19:59;3.97;;;3.40;;
49566;SDS011;35472;50.514;30.448;2022-07-05T12:22:28;8.85;;;3.85;;
49566;SDS011;35472;50.514;30.448;2022-07-05T12:24:58;3.97;;;3.53;;
49566;SDS011;35472;50.514;30.448;2022-07-05T12:27:28;4.82;;;4.00;;
49566;SDS011;35472;50.514;30.448;2022-07-05T12:29:54;4.80;;;4.28;;
49566;SDS011;35472;50.514;30.448;2022-07-05T12:32:21;4.60;;;4.07;;
49566;SDS011;35472;50.514;30.448;2022-07-05T12:34:46;5.18;;;3.75;;
49566;SDS011;35472;50.514;30.448;2022-07-05T12:37:21;5.20;;;4.50;;
49566;SDS011;35472;50.514;30.448;2022-07-05T12:39:50;3.85;;;3.45;;
49566;SDS011;35472;50.514;30.448;2022-07-05T12:42:31;5.30;;;4.43;;
49566;SDS011;35472;50.514;30.448;2022-07-05T12:45:13;5.00;;;3.90;;
49566;SDS011;35472;50.514;30.448;2022-07-05T12:50:18;3.95;;;3.40;;
49566;SDS011;35472;50.514;30.448;2022-07-05T12:55:48;4.50;;;4.05;;
49566;SDS011;35472;50.514;30.448;2022-07-05T12:58:47;5.95;;;4.38;;
49566;SDS011;35472;50.514;30.448;2022-07-05T13:01:27;4.47;;;4.07;;
49566;SDS011;35472;50.514;30.448;2022-07-05T13:12:08;7.28;;;4.95;;
49566;SDS011;35472;50.514;30.448;2022-07-05T13:14:35;5.30;;;4.03;;
49566;SDS011;35472;50.514;30.448;2022-07-05T13:17:01;5.50;;;4.40;;
49566;SDS011;35472;50.514;30.448;2022-07-05T13:19:27;5.65;;;4.40;;
49566;SDS011;35472;50.514;30.448;2022-07-05T13:21:52;5.95;;;4.03;;
49566;SDS011;35472;50.514;30.448;2022-07-05T13:24:18;8.10;;;4.22;;
49566;SDS011;35472;50.514;30.448;2022-07-05T13:26:43;7.55;;;4.07;;
49566;SDS011;35472;50.514;30.448;2022-07-05T13:29:09;4.78;;;4.25;;
49566;SDS011;35472;50.514;30.448;2022-07-05T13:31:34;6.32;;;4.20;;
49566;SDS011;35472;50.514;30.448;2022-07-05T13:34:00;4.85;;;3.85;;
49566;SDS011;35472;50.514;30.448;2022-07-05T13:36:26;3.78;;;3.47;;
49566;SDS011;35472;50.514;30.448;2022-07-05T13:38:52;4.90;;;4.38;;
49566;SDS011;35472;50.514;30.448;2022-07-05T13:41:18;5.13;;;4.63;;
49566;SDS011;35472;50.514;30.448;2022-07-05T13:43:43;6.80;;;4.40;;
49566;SDS011;35472;50.514;30.448;2022-07-05T13:46:12;9.07;;;4.30;;
49566;SDS011;35472;50.514;30.448;2022-07-05T13:48:38;4.28;;;3.78;;
49566;SDS011;35472;50.514;30.448;2022-07-05T13:51:04;4.90;;;3.92;;
49566;SDS011;35472;50.514;30.448;2022-07-05T13:53:31;6.07;;;4.47;;
49566;SDS011;35472;50.514;30.448;2022-07-05T13:55:56;5.40;;;4.25;;
49566;SDS011;35472;50.514;30.448;2022-07-05T13:58:22;8.63;;;5.68;;
49566;SDS011;35472;50.514;30.448;2022-07-05T14:00:48;8.68;;;4.05;;
49566;SDS011;35472;50.514;30.448;2022-07-05T14:03:13;6.13;;;5.13;;
49566;SDS011;35472;50.514;30.448;2022-07-05T14:05:41;4.32;;;4.03;;
49566;SDS011;35472;50.514;30.448;2022-07-05T14:08:07;6.45;;;4.47;;
49566;SDS011;35472;50.514;30.448;2022-07-05T14:10:32;4.18;;;3.75;;
49566;SDS011;35472;50.514;30.448;2022-07-05T14:12:58;5.45;;;4.13;;
49566;SDS011;35472;50.514;30.448;2022-07-05T14:15:23;4.40;;;3.33;;
49566;SDS011;35472;50.514;30.448;2022-07-05T14:17:49;6.30;;;3.78;;
49566;SDS011;35472;50.514;30.448;2022-07-05T14:20:15;4.28;;;3.80;;
49566;SDS011;35472;50.514;30.448;2022-07-05T14:22:41;4.93;;;4.10;;
49566;SDS011;35472;50.514;30.448;2022-07-05T14:25:06;4.00;;;3.50;;
49566;SDS011;35472;50.514;30.448;2022-07-05T14:27:32;5.43;;;4.60;;
49566;SDS011;35472;50.514;30.448;2022-07-05T14:29:57;5.97;;;3.92;;
49566;SDS011;35472;50.514;30.448;2022-07-05T14:32:23;5.47;;;4.32;;
49566;SDS011;35472;50.514;30.448;2022-07-05T14:34:49;5.20;;;3.50;;
49566;SDS011;35472;50.514;30.448;2022-07-05T14:37:14;4.80;;;4.40;;
49566;SDS011;35472;50.514;30.448;2022-07-05T14:39:40;7.78;;;3.97;;
49566;SDS011;35472;50.514;30.448;2022-07-05T14:42:05;4.65;;;4.25;;
49566;SDS011;35472;50.514;30.448;2022-07-05T14:44:31;4.45;;;4.07;;
49566;SDS011;35472;50.514;30.448;2022-07-05T14:46:56;5.55;;;4.63;;
49566;SDS011;35472;50.514;30.448;2022-07-05T14:49:22;4.10;;;3.70;;
49566;SDS011;35472;50.514;30.448;2022-07-05T14:51:47;3.92;;;3.63;;
49566;SDS011;35472;50.514;30.448;2022-07-05T14:54:13;3.85;;;3.45;;
49566;SDS011;35472;50.514;30.448;2022-07-05T14:56:38;4.75;;;3.80;;
49566;SDS011;35472;50.514;30.448;2022-07-05T14:59:03;3.67;;;3.38;;
49566;SDS011;35472;50.514;30.448;2022-07-05T15:01:29;3.90;;;3.60;;
49566;SDS011;35472;50.514;30.448;2022-07-05T15:03:54;3.85;;;3.55;;
49566;SDS011;35472;50.514;30.448;2022-07-05T15:06:20;5.05;;;3.47;;
49566;SDS011;35472;50.514;30.448;2022-07-05T15:08:46;4.85;;;4.45;;
49566;SDS011;35472;50.514;30.448;2022-07-05T15:11:11;4.00;;;3.53;;
49566;SDS011;35472;50.514;30.448;2022-07-05T15:13:36;5.70;;;3.65;;
49566;SDS011;35472;50.514;30.448;2022-07-05T15:16:02;4.07;;;3.63;;
49566;SDS011;35472;50.514;30.448;2022-07-05T15:18:28;4.95;;;3.78;;
49566;SDS011;35472;50.514;30.448;2022-07-05T15:20:54;5.80;;;4.07;;